Time;durP1;ratioP1;P1;durP2;ratioP2;P2;SDS_P1;SDS_P2;PMS_P1;PMS_P2;Temp;Humidity;BMP_temperature;BMP_pressure;BME280_temperature;BME280_humidity;BME280_pressure;Samples;Min_cycle;Max_cycle;Signal;HPM_P1;HPM_P2
2021/07/03 00:02:40;;;;;;;9.48;5.18;;;18.90;63.50;;;;;;5104607;28;27325;-58
2021/07/03 00:05:24;;;;;;;5.75;5.13;;;18.90;63.60;;;;;;5104704;28;27409;-60
2021/07/03 00:08:09;;;;;;;7.00;5.35;;;18.90;63.70;;;;;;5102933;28;27668;-59
2021/07/03 00:10:57;;;;;;;6.20;5.60;;;18.90;63.70;;;;;;5100313;28;27407;-59
2021/07/03 00:13:41;;;;;;;8.98;4.95;;;18.80;63.80;;;;;;5104440;28;26849;-59
2021/07/03 00:16:26;;;;;;;7.07;5.20;;;18.80;63.80;;;;;;5104352;28;27457;-59
2021/07/03 00:19:10;;;;;;;8.45;5.63;;;18.80;64.00;;;;;;5104251;28;27410;-60
2021/07/03 00:21:55;;;;;;;7.30;5.47;;;18.80;63.80;;;;;;5104203;28;27415;-59
2021/07/03 00:24:40;;;;;;;8.95;5.80;;;18.80;63.70;;;;;;5104204;28;27407;-59
2021/07/03 00:27:24;;;;;;;8.75;5.40;;;18.70;63.70;;;;;;5104479;28;27445;-58
2021/07/03 00:30:09;;;;;;;9.32;6.35;;;18.70;63.80;;;;;;5104347;28;27455;-59
2021/07/03 00:32:54;;;;;;;9.85;5.93;;;18.70;64.00;;;;;;5100224;28;27452;-58
2021/07/03 00:35:39;;;;;;;8.70;5.25;;;18.60;64.00;;;;;;5100096;28;27473;-59
2021/07/03 00:38:26;;;;;;;7.03;5.28;;;18.60;64.10;;;;;;5107307;28;27464;-59
2021/07/03 00:41:11;;;;;;;7.07;5.50;;;18.60;64.20;;;;;;5103820;28;27490;-58
2021/07/03 00:43:56;;;;;;;9.60;5.82;;;18.60;64.30;;;;;;5107544;28;27409;-58
2021/07/03 00:46:41;;;;;;;8.75;6.00;;;18.60;64.20;;;;;;5103790;28;27473;-58
2021/07/03 00:49:26;;;;;;;9.77;5.47;;;18.50;64.20;;;;;;5105342;28;27416;-58
2021/07/03 00:52:11;;;;;;;8.18;5.07;;;18.50;64.20;;;;;;5103346;28;27438;-58
2021/07/03 00:54:56;;;;;;;7.05;5.40;;;18.50;64.20;;;;;;5103538;28;27429;-58
2021/07/03 00:57:43;;;;;;;5.70;4.95;;;18.50;64.40;;;;;;5103676;28;27466;-58
2021/07/03 01:00:28;;;;;;;7.50;4.65;;;18.40;64.20;;;;;;5103242;28;27401;-58
2021/07/03 01:03:16;;;;;;;5.53;4.80;;;18.40;64.30;;;;;;5103510;28;27949;-58
2021/07/03 01:06:02;;;;;;;11.40;5.45;;;18.40;64.40;;;;;;5103475;28;27355;-58
2021/07/03 01:08:47;;;;;;;9.63;5.28;;;18.40;64.40;;;;;;5106888;28;27331;-58
2021/07/03 01:11:31;;;;;;;6.95;5.30;;;18.30;64.30;;;;;;5103436;28;27373;-60
2021/07/03 01:14:17;;;;;;;7.57;5.32;;;18.30;64.40;;;;;;5103747;28;27385;-58
2021/07/03 01:17:02;;;;;;;6.30;4.93;;;18.30;64.30;;;;;;5105703;28;27699;-58
2021/07/03 01:19:49;;;;;;;10.23;5.63;;;18.20;64.10;;;;;;5103041;28;27468;-58
2021/07/03 01:22:37;;;;;;;8.55;4.88;;;18.20;64.20;;;;;;5102923;28;27474;-58
2021/07/03 01:25:24;;;;;;;7.88;5.53;;;18.20;64.20;;;;;;5102855;28;27422;-59
2021/07/03 01:28:10;;;;;;;7.07;5.85;;;18.20;64.40;;;;;;5103858;28;27380;-59
2021/07/03 01:31:00;;;;;;;9.05;7.00;;;18.10;64.30;;;;;;5102826;28;27419;-58
2021/07/03 01:33:50;;;;;;;9.15;7.15;;;18.10;64.40;;;;;;5102454;28;27400;-58
2021/07/03 01:36:36;;;;;;;15.75;6.93;;;18.10;64.30;;;;;;5102725;28;27343;-58
2021/07/03 01:39:22;;;;;;;9.73;6.78;;;18.00;64.30;;;;;;5102652;28;27453;-59
2021/07/03 01:42:09;;;;;;;8.52;6.30;;;18.00;64.50;;;;;;5103706;28;27336;-59
2021/07/03 01:44:55;;;;;;;10.05;6.70;;;18.00;64.40;;;;;;5102607;28;27474;-58
2021/07/03 01:47:42;;;;;;;9.52;6.63;;;18.00;64.60;;;;;;5102697;28;27459;-58
2021/07/03 01:50:27;;;;;;;8.52;6.38;;;18.00;64.60;;;;;;5102191;28;27420;-59
2021/07/03 01:53:15;;;;;;;9.25;6.40;;;17.90;64.50;;;;;;5102328;28;27438;-59
2021/07/03 01:56:00;;;;;;;10.10;5.80;;;17.90;64.70;;;;;;5103212;28;27315;-59
2021/07/03 01:58:45;;;;;;;10.60;6.15;;;17.90;64.60;;;;;;5088366;28;27324;-58
2021/07/03 02:01:44;;;;;;;10.52;5.95;;;17.90;64.60;;;;;;5102278;28;27407;-58
2021/07/03 02:04:30;;;;;;;10.82;5.80;;;17.80;64.50;;;;;;5102293;28;27436;-58
2021/07/03 02:07:20;;;;;;;10.57;5.95;;;17.80;64.50;;;;;;5102518;28;27405;-58
2021/07/03 02:10:06;;;;;;;8.32;6.40;;;17.80;64.60;;;;;;5106049;28;27398;-60
2021/07/03 02:12:50;;;;;;;10.20;5.57;;;17.70;64.60;;;;;;5102299;28;27355;-58
2021/07/03 02:15:43;;;;;;;10.05;5.90;;;17.80;64.70;;;;;;5102137;28;27450;-59
2021/07/03 02:18:37;;;;;;;6.15;5.18;;;17.80;65.00;;;;;;5103083;28;27477;-59
2021/07/03 02:21:31;;;;;;;13.50;5.47;;;17.70;64.60;;;;;;5101942;28;27480;-58
2021/07/03 02:24:16;;;;;;;6.82;5.63;;;17.70;64.70;;;;;;5102668;28;27463;-58
2021/07/03 02:27:01;;;;;;;6.88;5.40;;;17.70;64.60;;;;;;5102228;28;27476;-58
2021/07/03 02:29:46;;;;;;;9.23;5.68;;;17.60;64.60;;;;;;5102145;28;27459;-58
2021/07/03 02:32:33;;;;;;;9.50;5.65;;;17.60;64.70;;;;;;5101689;28;27434;-58
2021/07/03 02:35:18;;;;;;;9.02;5.85;;;17.60;64.70;;;;;;5106059;28;27472;-58
2021/07/03 02:38:03;;;;;;;10.15;5.65;;;17.60;64.70;;;;;;5102798;28;27461;-58
2021/07/03 02:40:48;;;;;;;11.05;5.68;;;17.60;64.60;;;;;;5105354;28;27588;-58
2021/07/03 02:43:32;;;;;;;9.55;5.75;;;17.50;64.70;;;;;;5101868;28;27395;-58
2021/07/03 02:46:24;;;;;;;7.25;6.00;;;17.50;64.60;;;;;;5102585;28;27493;-58
2021/07/03 02:49:09;;;;;;;7.95;5.13;;;17.50;64.70;;;;;;5101818;28;27435;-59
2021/07/03 02:51:56;;;;;;;6.25;5.03;;;17.50;64.80;;;;;;5101488;28;27450;-58
2021/07/03 02:54:42;;;;;;;6.15;5.10;;;17.40;64.70;;;;;;5101844;28;27446;-58
2021/07/03 02:57:27;;;;;;;5.90;4.57;;;17.40;64.90;;;;;;5102201;28;27602;-58
2021/07/03 03:00:14;;;;;;;10.27;5.20;;;17.40;64.90;;;;;;5101382;27;27458;-58
2021/07/03 03:03:01;;;;;;;7.03;5.50;;;17.40;64.90;;;;;;5101647;28;27344;-58
2021/07/03 03:05:49;;;;;;;6.38;5.38;;;17.40;65.00;;;;;;5101705;28;27911;-58
2021/07/03 03:08:34;;;;;;;6.10;5.18;;;17.30;64.90;;;;;;5102646;28;27439;-58
2021/07/03 03:11:20;;;;;;;8.98;5.65;;;17.30;64.90;;;;;;5105543;28;27455;-58
2021/07/03 03:14:05;;;;;;;6.22;4.72;;;17.30;65.00;;;;;;5101971;28;27057;-58
2021/07/03 03:16:51;;;;;;;6.32;4.97;;;17.30;65.00;;;;;;5101070;28;27979;-58
2021/07/03 03:19:39;;;;;;;7.32;4.82;;;17.30;65.00;;;;;;5105324;28;27454;-58
2021/07/03 03:22:24;;;;;;;5.72;5.03;;;17.30;65.10;;;;;;5101111;28;27398;-58
2021/07/03 03:25:10;;;;;;;5.65;5.03;;;17.20;65.20;;;;;;5102088;28;27375;-58
2021/07/03 03:27:56;;;;;;;4.82;4.30;;;17.20;65.10;;;;;;5101210;28;27311;-60
2021/07/03 03:30:41;;;;;;;9.52;5.53;;;17.20;65.20;;;;;;5101680;28;27355;-58
2021/07/03 03:33:32;;;;;;;5.50;4.70;;;17.20;65.20;;;;;;5104452;28;27422;-58
2021/07/03 03:36:17;;;;;;;5.80;4.47;;;17.20;65.40;;;;;;5104900;28;27457;-58
2021/07/03 03:39:03;;;;;;;9.13;5.28;;;17.20;65.40;;;;;;5101505;28;27832;-58
2021/07/03 03:41:50;;;;;;;8.05;5.53;;;17.10;65.40;;;;;;5101027;28;27391;-58
2021/07/03 03:44:36;;;;;;;8.40;6.05;;;17.10;65.40;;;;;;5100772;28;27307;-59
2021/07/03 03:47:21;;;;;;;10.27;5.70;;;17.10;65.70;;;;;;5104477;28;27329;-58
2021/07/03 03:50:06;;;;;;;8.27;5.63;;;17.10;65.60;;;;;;5101360;28;27941;-58
2021/07/03 03:52:51;;;;;;;7.43;4.85;;;17.10;65.70;;;;;;5104746;28;27419;-58
2021/07/03 03:55:36;;;;;;;10.55;5.50;;;17.10;65.80;;;;;;5101316;28;27316;-58
2021/07/03 03:58:24;;;;;;;8.30;5.60;;;17.10;65.80;;;;;;5086559;28;27484;-59
2021/07/03 04:01:08;;;;;;;8.13;4.97;;;17.10;65.90;;;;;;5101205;28;27415;-58
2021/07/03 04:03:54;;;;;;;8.40;5.25;;;17.10;66.10;;;;;;5100706;28;27477;-58
2021/07/03 04:06:39;;;;;;;6.47;5.07;;;17.10;66.10;;;;;;5100785;28;27410;-59
2021/07/03 04:09:25;;;;;;;5.88;5.00;;;17.10;66.10;;;;;;5101982;28;27491;-58
2021/07/03 04:12:10;;;;;;;9.30;5.68;;;17.10;66.30;;;;;;5105452;28;27456;-58
2021/07/03 04:14:57;;;;;;;5.72;4.53;;;17.10;66.30;;;;;;5108004;28;27427;-58
2021/07/03 04:17:44;;;;;;;6.07;4.82;;;17.10;66.40;;;;;;5108374;28;27446;-58
2021/07/03 04:20:29;;;;;;;13.40;5.30;;;17.10;66.40;;;;;;5107264;28;27383;-58
2021/07/03 04:23:14;;;;;;;7.05;4.97;;;17.10;66.70;;;;;;5108228;28;27465;-58
2021/07/03 04:25:58;;;;;;;6.30;5.65;;;17.10;66.70;;;;;;5108111;28;27456;-58
2021/07/03 04:28:46;;;;;;;5.13;4.63;;;17.10;66.70;;;;;;5092957;28;27375;-58
2021/07/03 04:31:31;;;;;;;10.45;5.32;;;17.10;66.90;;;;;;5108140;28;27396;-58
2021/07/03 04:34:15;;;;;;;9.75;5.10;;;17.10;67.10;;;;;;5106651;28;27934;-58
2021/07/03 04:37:00;;;;;;;7.10;4.72;;;17.10;67.10;;;;;;5107654;28;27351;-58
2021/07/03 04:39:44;;;;;;;7.07;5.30;;;17.10;67.00;;;;;;5107740;28;27330;-58
2021/07/03 04:42:32;;;;;;;6.78;4.82;;;17.10;67.30;;;;;;5103605;28;27377;-58
2021/07/03 04:45:16;;;;;;;5.05;4.55;;;17.10;67.30;;;;;;5106777;28;28062;-58
2021/07/03 04:48:01;;;;;;;6.22;5.30;;;17.10;67.50;;;;;;5107904;28;27410;-58
2021/07/03 04:50:46;;;;;;;10.27;4.93;;;17.10;67.60;;;;;;5103541;28;27396;-58
2021/07/03 04:53:31;;;;;;;6.85;5.10;;;17.10;67.60;;;;;;5107329;28;27390;-58
2021/07/03 04:56:18;;;;;;;6.25;5.03;;;17.10;67.90;;;;;;5107277;28;27308;-58
2021/07/03 04:59:03;;;;;;;7.45;5.13;;;17.10;68.00;;;;;;5107371;28;27384;-58
2021/07/03 05:01:48;;;;;;;6.35;5.43;;;17.10;67.90;;;;;;5107385;28;27377;-58
2021/07/03 05:04:32;;;;;;;7.35;5.22;;;17.10;68.10;;;;;;5107664;28;27362;-58
2021/07/03 05:07:17;;;;;;;6.40;5.32;;;17.10;68.10;;;;;;5107296;28;27390;-58
2021/07/03 05:10:31;;;;;;;6.10;5.18;;;17.20;68.20;;;;;;5106469;27;27394;-58
2021/07/03 05:13:17;;;;;;;7.70;5.70;;;17.20;68.50;;;;;;5106548;28;27378;-58
2021/07/03 05:16:02;;;;;;;6.10;5.32;;;17.20;68.50;;;;;;5103878;28;27397;-58
2021/07/03 05:18:47;;;;;;;7.85;6.28;;;17.20;68.60;;;;;;5103723;28;27358;-58
2021/07/03 05:21:31;;;;;;;6.10;5.40;;;17.20;68.60;;;;;;5106995;28;27378;-58
2021/07/03 05:24:16;;;;;;;7.18;5.78;;;17.20;68.80;;;;;;5106899;28;27373;-58
2021/07/03 05:27:01;;;;;;;7.35;5.55;;;17.20;69.20;;;;;;5106968;28;27397;-59
2021/07/03 05:29:45;;;;;;;6.40;5.22;;;17.20;69.10;;;;;;5107176;28;27365;-58
2021/07/03 05:32:30;;;;;;;7.47;5.93;;;17.30;69.20;;;;;;5107098;28;27398;-58
2021/07/03 05:35:14;;;;;;;10.05;8.38;;;17.30;69.30;;;;;;5106831;28;27414;-60
2021/07/03 05:37:59;;;;;;;6.82;6.13;;;17.30;69.90;;;;;;5107035;28;27364;-58
2021/07/03 05:40:46;;;;;;;7.45;6.25;;;17.30;70.10;;;;;;5106632;28;27392;-59
2021/07/03 05:43:35;;;;;;;9.45;6.20;;;17.40;70.50;;;;;;5106903;28;27323;-59
2021/07/03 05:46:19;;;;;;;8.75;6.85;;;17.40;70.90;;;;;;5102625;28;27503;-58
2021/07/03 05:49:03;;;;;;;8.45;6.93;;;17.40;70.90;;;;;;5106853;28;27322;-60
2021/07/03 05:51:48;;;;;;;8.23;5.95;;;17.50;71.20;;;;;;5106262;28;27868;-58
2021/07/03 05:54:33;;;;;;;11.07;7.43;;;17.60;71.20;;;;;;5102161;28;27339;-59
2021/07/03 05:57:18;;;;;;;10.48;7.43;;;17.70;70.70;;;;;;5106241;28;27374;-58
2021/07/03 06:00:05;;;;;;;12.00;7.85;;;17.90;69.40;;;;;;5106669;28;27299;-58
2021/07/03 06:02:59;;;;;;;9.48;7.55;;;18.10;69.50;;;;;;5106029;28;27370;-59
2021/07/03 06:05:43;;;;;;;8.13;7.30;;;18.30;69.60;;;;;;5105591;28;27479;-58
2021/07/03 06:08:27;;;;;;;9.82;7.32;;;18.50;69.70;;;;;;5104833;28;27332;-60
2021/07/03 06:11:13;;;;;;;8.82;7.60;;;18.70;69.80;;;;;;5103256;28;27367;-59
2021/07/03 06:14:00;;;;;;;8.70;6.97;;;18.80;69.90;;;;;;5106219;28;27320;-59
2021/07/03 06:16:45;;;;;;;9.02;7.97;;;19.00;69.70;;;;;;5106060;28;27417;-59
2021/07/03 06:19:30;;;;;;;8.48;6.90;;;19.20;70.10;;;;;;5105519;28;27431;-58
2021/07/03 06:22:14;;;;;;;9.07;7.20;;;19.40;69.50;;;;;;5103021;28;27470;-59
2021/07/03 06:24:59;;;;;;;11.00;7.18;;;19.60;69.20;;;;;;5106268;28;27352;-59
2021/07/03 06:27:43;;;;;;;9.30;7.60;;;19.70;69.20;;;;;;5105916;28;27409;-59
2021/07/03 06:30:28;;;;;;;9.38;7.13;;;19.90;69.00;;;;;;5106212;28;27382;-58
2021/07/03 06:33:15;;;;;;;8.50;7.30;;;20.10;68.80;;;;;;5105797;28;27382;-58
2021/07/03 06:36:00;;;;;;;9.88;8.02;;;20.20;68.60;;;;;;5105072;27;27407;-58
2021/07/03 06:38:44;;;;;;;8.90;8.00;;;20.40;68.70;;;;;;5106049;28;27512;-59
2021/07/03 06:41:29;;;;;;;9.45;7.60;;;20.50;68.30;;;;;;5106114;28;27381;-59
2021/07/03 06:44:13;;;;;;;11.50;7.75;;;20.70;68.30;;;;;;5105693;28;27326;-59
2021/07/03 06:46:58;;;;;;;9.15;7.63;;;20.70;68.20;;;;;;5105300;28;27339;-59
2021/07/03 06:49:43;;;;;;;11.13;8.45;;;20.80;67.90;;;;;;5105874;28;27359;-59
2021/07/03 06:52:30;;;;;;;12.05;8.02;;;20.80;68.30;;;;;;5105612;28;27359;-59
2021/07/03 06:55:14;;;;;;;11.48;8.05;;;20.90;68.70;;;;;;5105495;28;27586;-59
2021/07/03 06:57:59;;;;;;;8.23;7.00;;;20.90;68.80;;;;;;5105699;28;27439;-59
2021/07/03 07:00:44;;;;;;;8.90;7.82;;;21.00;69.00;;;;;;5105687;28;27534;-59
2021/07/03 07:03:28;;;;;;;8.35;7.22;;;21.10;68.90;;;;;;5105465;28;27402;-58
2021/07/03 07:06:12;;;;;;;10.05;7.75;;;21.20;68.90;;;;;;5104608;28;27363;-58
2021/07/03 07:08:57;;;;;;;9.80;7.75;;;21.30;69.00;;;;;;5103840;28;27603;-59
2021/07/03 07:11:41;;;;;;;8.85;7.25;;;21.50;69.10;;;;;;5105230;28;27327;-59
2021/07/03 07:14:27;;;;;;;9.13;7.05;;;21.60;68.70;;;;;;5104863;28;27660;-59
2021/07/03 07:17:11;;;;;;;9.88;7.47;;;21.80;68.60;;;;;;5102144;28;27384;-59
2021/07/03 07:19:56;;;;;;;11.55;8.15;;;21.90;68.70;;;;;;5105428;28;27371;-59
2021/07/03 07:22:41;;;;;;;8.93;7.63;;;22.10;67.90;;;;;;5105047;28;27332;-59
2021/07/03 07:25:29;;;;;;;7.90;6.70;;;22.20;67.60;;;;;;5104596;28;27358;-60
2021/07/03 07:28:13;;;;;;;12.23;8.85;;;22.30;67.40;;;;;;5105354;28;26941;-59
2021/07/03 07:30:58;;;;;;;8.02;6.90;;;22.50;67.30;;;;;;5104900;28;27348;-59
2021/07/03 07:33:43;;;;;;;10.98;7.57;;;22.70;66.60;;;;;;5104971;28;27391;-59
2021/07/03 07:36:28;;;;;;;7.72;6.93;;;23.00;66.30;;;;;;5105190;28;27344;-59
2021/07/03 07:39:12;;;;;;;9.45;6.65;;;23.20;65.90;;;;;;5104914;28;27441;-59
2021/07/03 07:41:57;;;;;;;11.65;6.90;;;23.40;65.60;;;;;;5101739;28;27374;-59
2021/07/03 07:44:41;;;;;;;8.25;7.35;;;23.60;64.70;;;;;;5105027;28;27398;-59
2021/07/03 07:47:26;;;;;;;8.65;6.45;;;23.80;64.00;;;;;;5103965;27;27426;-59
2021/07/03 07:50:11;;;;;;;6.93;5.97;;;24.00;63.50;;;;;;5105015;28;27340;-59
2021/07/03 07:52:56;;;;;;;8.43;5.97;;;24.20;62.70;;;;;;5104604;28;27876;-59
2021/07/03 07:55:40;;;;;;;8.75;5.68;;;24.40;62.90;;;;;;5104888;28;27419;-59
2021/07/03 07:58:25;;;;;;;7.47;5.93;;;24.60;61.80;;;;;;5104921;28;27383;-59
2021/07/03 08:01:12;;;;;;;7.35;6.05;;;24.80;61.80;;;;;;5104592;28;27418;-59
2021/07/03 08:03:57;;;;;;;6.90;5.82;;;25.00;61.20;;;;;;5104467;28;27394;-59
2021/07/03 08:06:49;;;;;;;6.40;5.78;;;25.20;61.10;;;;;;5104182;28;27391;-60
2021/07/03 08:09:34;;;;;;;7.82;5.65;;;25.30;60.70;;;;;;5104061;28;26870;-59
2021/07/03 08:12:18;;;;;;;7.35;5.70;;;25.50;60.60;;;;;;5104361;28;27476;-59
2021/07/03 08:15:04;;;;;;;7.28;5.85;;;25.80;60.20;;;;;;5104610;28;27422;-59
2021/07/03 08:17:49;;;;;;;8.10;5.63;;;25.90;59.90;;;;;;5104546;28;27426;-59
2021/07/03 08:20:34;;;;;;;7.97;5.65;;;26.10;59.70;;;;;;5104706;28;27454;-60
2021/07/03 08:23:19;;;;;;;7.20;5.97;;;26.20;59.40;;;;;;5104210;28;27449;-59
2021/07/03 08:26:03;;;;;;;8.02;5.45;;;26.40;59.50;;;;;;5103466;28;27540;-60
2021/07/03 08:28:51;;;;;;;6.75;5.57;;;26.60;59.10;;;;;;5104818;28;27450;-59
2021/07/03 08:31:36;;;;;;;6.35;5.68;;;26.80;58.20;;;;;;5104518;28;27347;-59
2021/07/03 08:34:21;;;;;;;6.13;5.18;;;27.00;57.70;;;;;;5103635;28;27426;-59
2021/07/03 08:37:06;;;;;;;5.82;5.22;;;27.20;56.90;;;;;;5104386;28;27400;-59
2021/07/03 08:39:53;;;;;;;5.90;5.30;;;27.30;57.40;;;;;;5104377;28;27384;-59
2021/07/03 08:42:38;;;;;;;5.32;4.80;;;27.50;57.50;;;;;;5104125;28;27371;-59
2021/07/03 08:45:23;;;;;;;5.32;4.82;;;27.60;57.40;;;;;;5104138;28;27332;-59
2021/07/03 08:48:07;;;;;;;7.10;5.10;;;27.80;57.50;;;;;;5104264;28;27374;-59
2021/07/03 08:50:57;;;;;;;6.85;4.20;;;27.90;56.50;;;;;;5103950;28;27605;-59
2021/07/03 08:53:42;;;;;;;5.45;4.95;;;28.10;57.30;;;;;;5103770;28;27407;-59
2021/07/03 08:56:27;;;;;;;5.70;5.15;;;28.10;57.50;;;;;;5103399;28;27426;-59
2021/07/03 08:59:22;;;;;;;5.53;5.03;;;28.30;56.50;;;;;;5106376;27;27547;-59
2021/07/03 09:02:07;;;;;;;5.18;4.68;;;28.40;56.30;;;;;;5106956;28;27458;-59
2021/07/03 09:04:52;;;;;;;6.97;5.70;;;28.60;56.40;;;;;;5107631;28;27453;-59
2021/07/03 09:07:37;;;;;;;5.38;4.88;;;28.60;55.70;;;;;;5107249;28;27460;-60
2021/07/03 09:10:23;;;;;;;5.25;4.75;;;28.80;55.10;;;;;;5107410;28;27480;-59
2021/07/03 09:13:08;;;;;;;5.60;4.85;;;28.80;55.10;;;;;;5103760;28;27411;-59
2021/07/03 09:15:53;;;;;;;6.72;4.97;;;29.00;54.20;;;;;;5107199;28;27468;-59
2021/07/03 09:18:37;;;;;;;7.53;4.65;;;29.10;54.00;;;;;;5107101;28;27445;-59
2021/07/03 09:21:22;;;;;;;7.47;4.45;;;29.20;54.30;;;;;;5106353;28;27464;-59
2021/07/03 09:24:12;;;;;;;5.80;4.57;;;29.30;52.20;;;;;;5106985;28;27461;-59
2021/07/03 09:27:00;;;;;;;4.85;4.38;;;29.30;51.90;;;;;;5107057;28;27381;-59
2021/07/03 09:29:50;;;;;;;5.15;4.65;;;29.50;52.00;;;;;;5104883;28;27466;-59
2021/07/03 09:32:34;;;;;;;5.38;4.35;;;29.60;52.00;;;;;;5106831;28;27396;-59
2021/07/03 09:35:36;;;;;;;4.53;4.10;;;29.80;53.90;;;;;;5106813;28;27393;-61
2021/07/03 09:38:27;;;;;;;6.22;4.18;;;29.90;52.30;;;;;;5106846;28;27449;-59
2021/07/03 09:41:16;;;;;;;5.85;4.05;;;30.00;52.20;;;;;;5106772;28;27361;-59
2021/07/03 09:44:07;;;;;;;6.45;4.55;;;30.00;52.20;;;;;;5106934;28;27454;-59
2021/07/03 09:46:53;;;;;;;4.70;4.22;;;30.20;52.60;;;;;;5106600;28;27398;-60
2021/07/03 09:49:38;;;;;;;4.82;4.43;;;30.30;53.10;;;;;;5106636;28;27399;-59
2021/07/03 09:52:23;;;;;;;4.38;3.83;;;30.30;52.40;;;;;;5106062;28;27369;-60
2021/07/03 09:55:08;;;;;;;4.70;4.30;;;30.30;50.50;;;;;;5106100;28;27931;-59
2021/07/03 09:57:53;;;;;;;5.93;4.40;;;30.40;50.90;;;;;;5102423;28;27592;-60
2021/07/03 10:00:38;;;;;;;5.10;3.85;;;30.40;51.30;;;;;;5105688;28;27403;-59
2021/07/03 10:03:23;;;;;;;5.43;3.80;;;30.60;51.70;;;;;;5106442;28;27387;-59
2021/07/03 10:06:08;;;;;;;7.18;3.58;;;30.70;50.40;;;;;;5106314;28;27324;-60
2021/07/03 10:08:57;;;;;;;5.05;3.90;;;30.70;51.50;;;;;;5102993;27;27426;-60
2021/07/03 10:11:45;;;;;;;3.55;3.25;;;30.80;51.30;;;;;;5105676;28;27464;-59
2021/07/03 10:14:38;;;;;;;3.03;2.80;;;30.80;49.90;;;;;;5105933;28;27396;-59
2021/07/03 10:17:31;;;;;;;3.90;3.50;;;30.80;49.60;;;;;;5106082;28;28053;-60
2021/07/03 10:20:16;;;;;;;5.05;3.75;;;30.90;50.60;;;;;;5106057;28;27430;-60
2021/07/03 10:23:01;;;;;;;6.25;3.50;;;30.90;50.30;;;;;;5105953;28;27641;-60
2021/07/03 10:25:49;;;;;;;4.30;3.88;;;31.00;50.70;;;;;;5106019;28;27469;-60
2021/07/03 10:28:35;;;;;;;5.80;3.50;;;31.00;50.80;;;;;;5105938;28;27418;-60
2021/07/03 10:31:20;;;;;;;3.90;3.50;;;31.10;50.00;;;;;;5105892;28;27364;-60
2021/07/03 10:34:05;;;;;;;3.92;3.53;;;31.20;50.20;;;;;;5104987;28;27338;-59
2021/07/03 10:36:57;;;;;;;3.70;3.40;;;31.20;52.20;;;;;;5105134;28;26942;-59
2021/07/03 10:39:42;;;;;;;5.07;3.72;;;31.40;51.10;;;;;;5105810;28;27423;-60
2021/07/03 10:42:30;;;;;;;3.75;3.35;;;31.50;49.50;;;;;;5104962;28;27494;-59
2021/07/03 10:45:22;;;;;;;4.85;3.10;;;31.50;48.30;;;;;;5105769;28;27394;-60
2021/07/03 10:48:16;;;;;;;4.82;3.35;;;31.50;47.00;;;;;;5105929;28;27476;-60
2021/07/03 10:51:13;;;;;;;3.13;2.65;;;31.40;48.90;;;;;;5104713;28;27505;-59
2021/07/03 10:54:19;;;;;;;4.00;3.25;;;31.40;49.60;;;;;;5105622;28;27565;-59
2021/07/03 10:57:04;;;;;;;3.40;3.10;;;31.40;48.90;;;;;;5105881;28;27466;-60
2021/07/03 10:59:49;;;;;;;3.17;2.63;;;31.40;48.30;;;;;;5106437;28;27393;-60
2021/07/03 11:02:33;;;;;;;4.20;2.88;;;31.30;46.20;;;;;;5104642;28;27809;-59
2021/07/03 11:05:18;;;;;;;3.22;2.72;;;31.40;49.70;;;;;;5105289;28;27449;-60
2021/07/03 11:08:11;;;;;;;3.40;2.45;;;31.50;49.80;;;;;;5104664;28;27423;-60
2021/07/03 11:10:55;;;;;;;3.35;2.63;;;31.50;49.40;;;;;;5105561;28;27479;-60
2021/07/03 11:13:41;;;;;;;3.22;2.88;;;31.60;49.20;;;;;;5104590;28;27393;-60
2021/07/03 11:16:25;;;;;;;4.07;2.88;;;31.60;48.30;;;;;;5105178;28;27424;-60
2021/07/03 11:19:30;;;;;;;4.63;2.70;;;31.60;49.50;;;;;;5105255;28;27470;-60
2021/07/03 11:22:23;;;;;;;2.78;2.47;;;31.60;49.20;;;;;;5104542;28;27450;-62
2021/07/03 11:25:14;;;;;;;4.15;2.97;;;31.60;50.30;;;;;;5104655;28;27332;-62
2021/07/03 11:28:37;;;;;;;5.28;3.00;;;31.60;50.70;;;;;;5104614;28;27438;-61
2021/07/03 11:31:29;;;;;;;3.15;2.90;;;31.60;50.00;;;;;;5105128;28;27407;-61
2021/07/03 11:34:19;;;;;;;3.58;3.05;;;31.60;51.50;;;;;;5104840;28;27467;-61
2021/07/03 11:37:14;;;;;;;4.88;3.50;;;31.60;50.80;;;;;;5105230;28;27383;-60
2021/07/03 11:40:22;;;;;;;3.33;3.03;;;31.60;51.30;;;;;;5101121;28;27524;-60
2021/07/03 11:43:13;;;;;;;3.30;3.00;;;31.60;51.40;;;;;;5104911;28;27339;-60
2021/07/03 11:46:07;;;;;;;5.28;3.38;;;31.60;50.60;;;;;;5102521;28;27492;-61
2021/07/03 11:49:00;;;;;;;3.10;2.80;;;31.60;52.80;;;;;;5104311;28;27951;-59
2021/07/03 11:52:01;;;;;;;3.03;2.72;;;31.70;50.40;;;;;;5104969;28;27438;-61
2021/07/03 11:55:12;;;;;;;3.67;2.97;;;31.70;50.90;;;;;;5104118;28;27421;-59
2021/07/03 11:58:03;;;;;;;5.25;2.67;;;31.70;48.10;;;;;;5101390;28;27461;-59
2021/07/03 12:00:59;;;;;;;3.45;3.15;;;31.70;49.20;;;;;;5086675;28;27841;-59
2021/07/03 12:03:50;;;;;;;3.33;3.03;;;31.60;50.00;;;;;;5089971;28;27490;-58
2021/07/03 12:06:41;;;;;;;3.15;2.78;;;31.70;50.80;;;;;;5090171;28;27352;-61
2021/07/03 12:09:50;;;;;;;5.03;3.00;;;31.60;51.30;;;;;;5102323;28;27461;-58
2021/07/03 12:12:39;;;;;;;4.15;2.83;;;31.70;51.80;;;;;;5103761;28;27637;-59
2021/07/03 12:15:28;;;;;;;4.68;3.22;;;31.70;51.00;;;;;;5103658;28;27492;-58
2021/07/03 12:18:33;;;;;;;2.92;2.63;;;31.70;51.10;;;;;;5104546;28;27398;-59
2021/07/03 12:21:34;;;;;;;2.88;2.63;;;31.70;51.90;;;;;;5103797;28;27335;-59
2021/07/03 12:24:30;;;;;;;2.78;2.58;;;31.70;50.60;;;;;;5103868;28;27937;-58
2021/07/03 12:27:39;;;;;;;3.45;3.10;;;31.60;48.30;;;;;;5104532;28;27385;-60
2021/07/03 12:30:31;;;;;;;3.72;2.42;;;31.50;48.70;;;;;;5103505;28;27423;-59
2021/07/03 12:33:27;;;;;;;2.80;2.30;;;31.40;51.80;;;;;;5091120;28;27466;-58
2021/07/03 12:36:19;;;;;;;3.40;2.55;;;31.40;52.00;;;;;;5093511;28;27484;-59
2021/07/03 12:39:13;;;;;;;2.67;2.47;;;31.40;52.30;;;;;;5093255;28;27417;-59
2021/07/03 12:42:12;;;;;;;2.70;2.50;;;31.50;53.80;;;;;;5089724;28;27357;-59
2021/07/03 12:45:09;;;;;;;5.05;3.03;;;31.50;53.40;;;;;;5107920;28;26902;-58
2021/07/03 12:48:12;;;;;;;2.97;2.35;;;31.50;51.70;;;;;;5107196;28;27942;-59
2021/07/03 12:51:05;;;;;;;2.90;2.63;;;31.50;54.10;;;;;;5090137;28;27404;-58
2021/07/03 12:53:58;;;;;;;3.05;2.75;;;31.50;52.70;;;;;;5107494;28;27460;-58
2021/07/03 12:57:09;;;;;;;3.60;2.45;;;31.50;50.90;;;;;;5092863;28;27363;-59
2021/07/03 13:00:04;;;;;;;2.92;2.50;;;31.40;50.80;;;;;;5107657;28;27510;-58
2021/07/03 13:02:57;;;;;;;2.60;2.40;;;31.30;50.60;;;;;;5103299;28;27402;-59
2021/07/03 13:06:13;;;;;;;3.80;2.50;;;31.20;51.30;;;;;;5106999;28;27477;-58
2021/07/03 13:09:03;;;;;;;6.50;2.80;;;31.20;49.70;;;;;;5104001;28;27464;-58
2021/07/03 13:11:53;;;;;;;3.80;2.53;;;31.10;51.40;;;;;;5092773;28;27508;-60
2021/07/03 13:14:44;;;;;;;5.32;3.00;;;31.10;52.70;;;;;;5078545;28;27328;-60
2021/07/03 13:17:37;;;;;;;4.57;3.15;;;31.00;51.50;;;;;;5103945;28;27481;-59
2021/07/03 13:20:27;;;;;;;2.55;2.35;;;31.00;52.40;;;;;;5106551;28;27326;-59
2021/07/03 13:23:41;;;;;;;3.47;2.97;;;31.10;52.50;;;;;;5107215;28;27921;-59
2021/07/03 13:26:31;;;;;;;3.72;2.92;;;31.00;51.20;;;;;;5107228;28;27461;-58
2021/07/03 13:29:23;;;;;;;3.40;2.78;;;31.00;51.20;;;;;;5106243;28;27371;-58
2021/07/03 13:32:18;;;;;;;3.05;2.67;;;31.00;50.30;;;;;;5106999;28;27317;-60
2021/07/03 13:35:10;;;;;;;3.55;2.97;;;30.90;51.20;;;;;;5106074;28;27919;-60
2021/07/03 13:38:03;;;;;;;3.17;2.97;;;30.80;51.10;;;;;;5107073;28;27460;-58
2021/07/03 13:41:01;;;;;;;3.35;3.05;;;30.80;49.20;;;;;;5106352;28;27325;-58
2021/07/03 13:44:01;;;;;;;3.22;2.92;;;30.80;51.20;;;;;;5106501;27;27407;-59
2021/07/03 13:46:52;;;;;;;2.80;2.60;;;30.80;52.30;;;;;;5106919;28;27941;-59
2021/07/03 13:49:41;;;;;;;2.95;2.65;;;30.80;52.20;;;;;;5088650;28;27494;-58
2021/07/03 13:52:35;;;;;;;3.30;3.00;;;30.80;52.10;;;;;;5092442;28;27395;-59
2021/07/03 13:55:43;;;;;;;3.40;3.00;;;30.80;51.10;;;;;;5106143;28;27332;-58
2021/07/03 13:58:45;;;;;;;2.95;2.70;;;30.80;50.60;;;;;;5105947;28;27376;-58
2021/07/03 14:01:40;;;;;;;3.22;2.92;;;30.70;53.50;;;;;;5105656;28;27322;-58
2021/07/03 14:04:40;;;;;;;6.05;3.10;;;30.70;52.50;;;;;;5106100;28;27336;-58
2021/07/03 14:07:35;;;;;;;2.70;2.42;;;30.60;51.50;;;;;;5106432;28;27482;-58
2021/07/03 14:10:35;;;;;;;6.55;3.00;;;30.60;52.10;;;;;;5104252;28;27516;-58
2021/07/03 14:13:32;;;;;;;3.33;3.03;;;30.50;52.20;;;;;;5102182;28;27332;-58
2021/07/03 14:16:31;;;;;;;6.82;3.17;;;30.40;51.30;;;;;;5105565;28;27343;-57
2021/07/03 14:19:37;;;;;;;3.47;2.88;;;30.30;51.70;;;;;;5106207;28;27372;-58
2021/07/03 14:22:36;;;;;;;5.25;3.03;;;30.20;51.60;;;;;;5106387;28;27497;-58
2021/07/03 14:25:28;;;;;;;4.35;2.80;;;30.20;52.30;;;;;;5105368;28;27489;-57
2021/07/03 14:28:17;;;;;;;3.38;3.00;;;30.20;50.30;;;;;;5074768;28;27490;-57
2021/07/03 14:31:11;;;;;;;3.58;3.28;;;30.30;51.80;;;;;;5102241;28;27330;-58
2021/07/03 14:34:06;;;;;;;3.60;3.28;;;30.20;52.00;;;;;;5101667;28;27840;-57
2021/07/03 14:37:00;;;;;;;3.85;3.10;;;30.20;51.50;;;;;;5088343;28;27431;-59